createdAt,value
2023-03-10T00:01:55.444Z,3.20
2023-03-10T00:04:23.036Z,1.95
2023-03-10T00:06:50.829Z,3.05
2023-03-10T00:09:18.551Z,3.05
2023-03-10T00:11:46.186Z,2.23
2023-03-10T00:14:14.074Z,1.63
2023-03-10T00:16:42.661Z,1.88
2023-03-10T00:19:11.803Z,2.00
2023-03-10T00:21:39.566Z,2.08
2023-03-10T00:24:07.376Z,1.20
2023-03-10T00:26:35.143Z,1.98
2023-03-10T00:29:02.844Z,0.77
2023-03-10T00:31:31.345Z,2.03
2023-03-10T00:33:59.325Z,1.00
2023-03-10T00:36:31.601Z,1.70
2023-03-10T00:39:01.259Z,1.63
2023-03-10T00:41:32.427Z,1.48
2023-03-10T00:44:02.288Z,1.55
2023-03-10T00:46:33.204Z,2.75
2023-03-10T00:49:01.226Z,0.73
2023-03-10T00:51:30.378Z,1.65
2023-03-10T00:53:58.291Z,2.05
2023-03-10T00:56:26.974Z,1.40
2023-03-10T00:58:56.952Z,1.88
2023-03-10T01:01:26.797Z,0.50
2023-03-10T01:03:56.424Z,0.80
2023-03-10T01:06:24.455Z,1.00
2023-03-10T01:08:53.729Z,0.95
2023-03-10T01:11:24.612Z,1.83
2023-03-10T01:13:53.129Z,1.37
2023-03-10T01:16:20.936Z,1.98
2023-03-10T01:18:48.801Z,1.42
2023-03-10T01:21:19.073Z,1.88
2023-03-10T01:23:46.766Z,1.33
2023-03-10T01:26:18.118Z,0.80
2023-03-10T01:28:46.467Z,1.33
2023-03-10T01:31:14.594Z,1.33
2023-03-10T01:33:43.076Z,0.70
2023-03-10T01:36:11.371Z,0.73
2023-03-10T01:38:39.750Z,1.15
2023-03-10T01:41:07.781Z,1.70
2023-03-10T01:43:37.804Z,1.30
2023-03-10T01:46:38.238Z,1.67
2023-03-10T01:49:12.073Z,1.55
2023-03-10T01:51:42.483Z,1.20
2023-03-10T01:54:15.723Z,2.30
2023-03-10T01:56:43.709Z,0.90
2023-03-10T01:59:13.677Z,2.63
2023-03-10T02:01:41.449Z,2.17
2023-03-10T02:04:12.152Z,2.83
2023-03-10T02:06:41.798Z,1.02
2023-03-10T02:09:10.797Z,1.85
2023-03-10T02:11:39.607Z,1.75
2023-03-10T02:14:07.711Z,1.55
2023-03-10T02:16:36.688Z,2.30
2023-03-10T02:19:07.349Z,2.20
2023-03-10T02:21:45.640Z,2.97
2023-03-10T02:24:22.105Z,1.58
2023-03-10T02:26:57.253Z,3.25
2023-03-10T02:29:31.752Z,1.03
2023-03-10T02:32:00.206Z,2.63
2023-03-10T02:34:29.167Z,4.13
2023-03-10T02:36:57.207Z,3.10
2023-03-10T02:39:24.910Z,2.00
2023-03-10T02:41:53.870Z,2.40
2023-03-10T02:44:24.462Z,1.70
2023-03-10T02:46:53.701Z,1.60
2023-03-10T02:49:25.620Z,1.80
2023-03-10T02:51:53.589Z,1.88
2023-03-10T02:54:21.347Z,1.70
2023-03-10T02:56:49.145Z,2.13
2023-03-10T02:59:16.816Z,3.58
2023-03-10T03:01:44.605Z,2.65
2023-03-10T03:04:13.865Z,3.38
2023-03-10T03:06:41.665Z,2.03
2023-03-10T03:09:09.681Z,2.92
2023-03-10T03:11:37.409Z,3.58
2023-03-10T03:14:05.131Z,1.90
2023-03-10T03:16:32.943Z,2.10
2023-03-10T03:19:00.764Z,3.47
2023-03-10T03:21:29.923Z,3.67
2023-03-10T03:23:57.593Z,3.67
2023-03-10T03:26:26.917Z,4.70
2023-03-10T03:28:54.685Z,3.22
2023-03-10T03:31:25.483Z,2.33
2023-03-10T03:33:53.258Z,3.63
2023-03-10T03:36:21.073Z,3.08
2023-03-10T03:38:50.232Z,4.38
2023-03-10T03:41:18.033Z,3.75
2023-03-10T03:43:45.777Z,5.68
2023-03-10T03:46:13.546Z,4.80
2023-03-10T03:48:41.436Z,4.05
2023-03-10T03:51:09.410Z,7.30
2023-03-10T03:53:37.187Z,2.92
2023-03-10T03:56:06.902Z,4.25
2023-03-10T03:58:34.880Z,4.03
2023-03-10T04:01:02.634Z,3.33
2023-03-10T04:03:30.429Z,1.45
2023-03-10T04:05:58.164Z,1.38
2023-03-10T04:08:25.829Z,3.28
2023-03-10T04:10:54.433Z,2.97
2023-03-10T04:13:23.493Z,3.28
2023-03-10T04:15:56.252Z,3.72
2023-03-10T04:18:23.945Z,4.85
2023-03-10T04:20:51.795Z,3.45
2023-03-10T04:23:19.560Z,5.80
2023-03-10T04:25:47.278Z,3.72
2023-03-10T04:28:15.056Z,4.10
2023-03-10T04:30:44.790Z,5.68
2023-03-10T04:33:13.219Z,4.57
2023-03-10T04:35:42.078Z,4.75
2023-03-10T04:38:10.416Z,6.32
2023-03-10T04:40:38.222Z,3.83
2023-03-10T04:43:06.096Z,5.80
2023-03-10T04:45:33.718Z,6.13
2023-03-10T04:48:02.736Z,5.00
2023-03-10T04:50:30.509Z,4.83
2023-03-10T04:52:58.225Z,5.50
2023-03-10T04:55:25.860Z,5.32
2023-03-10T04:57:53.627Z,6.85
2023-03-10T05:00:21.725Z,6.10
2023-03-10T05:02:49.453Z,5.87
2023-03-10T05:05:18.949Z,7.07
2023-03-10T05:07:46.563Z,5.93
2023-03-10T05:10:14.301Z,5.80
2023-03-10T05:12:43.102Z,7.20
2023-03-10T05:15:11.606Z,4.25
2023-03-10T05:17:39.274Z,5.20
2023-03-10T05:20:09.256Z,6.88
2023-03-10T05:22:38.920Z,7.22
2023-03-10T05:25:21.401Z,6.25
2023-03-10T05:27:49.063Z,7.78
2023-03-10T05:30:17.662Z,5.85
2023-03-10T05:32:46.121Z,8.77
2023-03-10T05:35:15.436Z,7.93
2023-03-10T05:37:45.225Z,11.23
2023-03-10T05:40:15.899Z,8.30
2023-03-10T05:42:43.654Z,7.15
2023-03-10T05:45:12.157Z,7.47
2023-03-10T05:47:39.788Z,7.95
2023-03-10T05:50:08.777Z,9.15
2023-03-10T05:52:38.429Z,7.90
2023-03-10T05:55:09.833Z,7.47
2023-03-10T05:57:37.726Z,9.80
2023-03-10T06:00:10.117Z,6.32
2023-03-10T06:02:39.101Z,7.35
2023-03-10T06:05:11.231Z,9.20
2023-03-10T06:07:39.261Z,8.50
2023-03-10T06:10:10.607Z,7.63
2023-03-10T06:12:38.667Z,9.55
2023-03-10T06:15:07.569Z,11.25
2023-03-10T06:17:35.185Z,8.93
2023-03-10T06:20:02.988Z,9.77
2023-03-10T06:22:31.460Z,7.95
2023-03-10T06:24:59.158Z,8.85
2023-03-10T06:27:28.346Z,9.15
2023-03-10T06:29:56.223Z,7.93
2023-03-10T06:32:24.154Z,9.82
2023-03-10T06:34:51.832Z,8.07
2023-03-10T06:37:19.538Z,9.57
2023-03-10T06:39:47.131Z,8.77
2023-03-10T06:42:14.699Z,6.63
2023-03-10T06:44:43.672Z,9.23
2023-03-10T06:47:11.534Z,9.85
2023-03-10T06:49:39.238Z,8.73
2023-03-10T06:52:07.227Z,5.82
2023-03-10T06:54:34.908Z,8.23
2023-03-10T06:57:02.561Z,7.32
2023-03-10T06:59:32.665Z,8.02
2023-03-10T07:02:01.670Z,6.07
2023-03-10T07:04:29.467Z,7.50
2023-03-10T07:06:57.108Z,7.45
2023-03-10T07:09:24.807Z,5.38
2023-03-10T07:11:52.482Z,6.05
2023-03-10T07:14:20.124Z,5.18
2023-03-10T07:16:47.975Z,5.60
2023-03-10T07:19:17.045Z,3.83
2023-03-10T07:21:44.711Z,5.70
2023-03-10T07:24:12.403Z,6.90
2023-03-10T07:26:40.350Z,5.45
2023-03-10T07:29:08.374Z,5.00
2023-03-10T07:31:37.246Z,1.60
2023-03-10T07:34:04.928Z,2.70
2023-03-10T07:36:33.878Z,2.95
2023-03-10T07:39:01.608Z,4.20
2023-03-10T07:41:29.566Z,3.33
2023-03-10T07:43:57.432Z,2.70
2023-03-10T07:46:25.123Z,2.40
2023-03-10T07:48:53.882Z,2.33
2023-03-10T07:51:21.829Z,2.20
2023-03-10T07:53:50.885Z,1.40
2023-03-10T07:56:18.531Z,3.63
2023-03-10T07:58:46.165Z,2.67
2023-03-10T08:01:16.553Z,2.60
2023-03-10T08:03:44.543Z,2.03
2023-03-10T08:06:17.453Z,1.83
2023-03-10T08:08:45.156Z,2.22
2023-03-10T08:11:14.272Z,3.88
2023-03-10T08:13:42.253Z,3.92
2023-03-10T08:16:09.962Z,4.97
2023-03-10T08:18:37.981Z,3.80
2023-03-10T08:21:06.731Z,3.30
2023-03-10T08:23:35.552Z,4.47
2023-03-10T08:26:05.642Z,7.57
2023-03-10T08:28:37.609Z,3.72
2023-03-10T08:31:09.568Z,4.18
2023-03-10T08:33:37.770Z,5.75
2023-03-10T08:36:08.611Z,6.55
2023-03-10T08:38:36.738Z,3.92
2023-03-10T08:41:15.762Z,5.35
2023-03-10T08:43:48.567Z,6.00
2023-03-10T08:46:17.681Z,5.37
2023-03-10T08:48:45.330Z,4.63
2023-03-10T08:51:15.787Z,4.45
2023-03-10T08:53:46.562Z,4.57
2023-03-10T08:56:14.462Z,3.42
2023-03-10T08:58:43.059Z,4.25
2023-03-10T09:01:13.981Z,4.05
2023-03-10T09:03:45.691Z,6.30
2023-03-10T09:06:14.640Z,5.18
2023-03-10T09:08:42.723Z,4.72
2023-03-10T09:11:11.328Z,4.00
2023-03-10T09:13:39.364Z,3.80
2023-03-10T09:16:11.127Z,4.13
2023-03-10T09:18:40.541Z,3.33
2023-03-10T09:21:08.610Z,3.13
2023-03-10T09:23:36.374Z,3.83
2023-03-10T09:26:04.284Z,2.60
2023-03-10T09:28:32.014Z,4.28
2023-03-10T09:30:59.766Z,4.78
2023-03-10T09:33:27.841Z,4.68
2023-03-10T09:36:06.314Z,4.35
2023-03-10T09:38:35.277Z,4.22
2023-03-10T09:41:20.047Z,3.80
2023-03-10T09:43:55.557Z,5.00
2023-03-10T09:46:26.808Z,3.40
2023-03-10T09:49:01.426Z,4.10
2023-03-10T09:51:30.889Z,3.70
2023-03-10T09:54:11.563Z,4.57
2023-03-10T09:56:39.286Z,3.08
2023-03-10T09:59:14.109Z,3.45
2023-03-10T10:01:45.905Z,4.82
2023-03-10T10:04:18.977Z,4.30
2023-03-10T10:06:50.924Z,4.70
2023-03-10T10:09:27.287Z,3.93
2023-03-10T10:11:55.931Z,3.67
2023-03-10T10:14:30.433Z,4.17
2023-03-10T10:17:05.971Z,3.40
2023-03-10T10:19:36.799Z,2.87
2023-03-10T10:22:11.419Z,4.97
2023-03-10T10:24:40.543Z,3.75
2023-03-10T10:27:08.334Z,4.05
2023-03-10T10:29:37.617Z,3.20
2023-03-10T10:32:08.342Z,5.40
2023-03-10T10:34:38.579Z,4.82
2023-03-10T10:37:24.550Z,2.50
2023-03-10T10:39:54.279Z,4.38
2023-03-10T10:42:26.026Z,3.93
2023-03-10T10:44:56.059Z,3.15
2023-03-10T10:47:30.462Z,2.67
2023-03-10T10:50:18.103Z,3.50
2023-03-10T10:52:49.307Z,3.30
2023-03-10T10:55:29.840Z,2.20
2023-03-10T10:58:01.450Z,2.78
2023-03-10T11:00:33.200Z,2.33
2023-03-10T11:03:01.792Z,2.42
2023-03-10T11:05:35.964Z,3.05
2023-03-10T11:08:20.009Z,3.28
2023-03-10T11:10:56.065Z,2.60
2023-03-10T11:13:30.351Z,1.98
2023-03-10T11:16:04.492Z,2.10
2023-03-10T11:18:37.990Z,1.40
2023-03-10T11:21:13.231Z,1.80
2023-03-10T11:23:51.078Z,2.80
2023-03-10T11:26:28.821Z,1.98
2023-03-10T11:29:01.979Z,1.60
2023-03-10T11:31:41.222Z,0.68
2023-03-10T11:34:19.326Z,1.83
2023-03-10T11:36:57.265Z,1.30
2023-03-10T11:39:36.363Z,1.20
2023-03-10T11:42:08.537Z,1.42
2023-03-10T11:44:41.905Z,0.95
2023-03-10T11:47:20.138Z,1.10
2023-03-10T11:49:55.494Z,0.97
2023-03-10T11:52:26.015Z,0.60
2023-03-10T11:55:05.701Z,0.85
2023-03-10T11:57:40.891Z,1.00
2023-03-10T12:00:20.541Z,1.60
2023-03-10T12:03:03.150Z,0.77
2023-03-10T12:05:41.044Z,0.93
2023-03-10T12:08:09.938Z,0.65
2023-03-10T12:10:42.241Z,1.10
2023-03-10T12:13:19.755Z,0.60
2023-03-10T12:15:48.951Z,0.80
2023-03-10T12:18:16.755Z,0.90
2023-03-10T12:20:44.484Z,1.40
2023-03-10T12:23:31.268Z,1.20
2023-03-10T12:26:02.197Z,0.47
2023-03-10T12:28:30.303Z,0.70
2023-03-10T12:30:59.331Z,0.47
2023-03-10T12:33:50.297Z,0.30
2023-03-10T12:36:27.814Z,0.20
2023-03-10T12:38:57.479Z,0.25
2023-03-10T12:41:45.880Z,0.20
2023-03-10T12:44:57.968Z,0.43
2023-03-10T12:47:31.759Z,0.20
2023-03-10T12:50:04.238Z,0.20
2023-03-10T12:52:39.581Z,0.20
2023-03-10T12:55:18.645Z,0.10
2023-03-10T12:57:57.305Z,0.20
2023-03-10T13:00:40.190Z,0.60
2023-03-10T13:03:19.435Z,0.73
2023-03-10T13:06:04.596Z,0.70
2023-03-10T13:08:42.175Z,0.13
2023-03-10T13:11:24.238Z,0.25
2023-03-10T13:13:58.317Z,0.15
2023-03-10T13:16:26.125Z,0.80
2023-03-10T13:18:55.263Z,0.30
2023-03-10T13:21:25.255Z,0.67
2023-03-10T13:23:53.407Z,0.50
2023-03-10T13:26:21.880Z,0.43
2023-03-10T13:28:55.957Z,0.25
2023-03-10T13:31:26.652Z,1.75
2023-03-10T13:33:55.779Z,0.20
2023-03-10T13:36:35.043Z,1.13
2023-03-10T13:39:05.113Z,0.43
2023-03-10T13:41:37.388Z,1.05
2023-03-10T13:44:06.966Z,0.80
2023-03-10T13:46:35.748Z,0.30
2023-03-10T13:49:06.943Z,1.00
2023-03-10T13:51:36.120Z,0.70
2023-03-10T13:54:22.861Z,0.55
2023-03-10T13:56:53.134Z,0.25
2023-03-10T13:59:24.946Z,0.20
2023-03-10T14:01:55.402Z,0.70
2023-03-10T14:04:45.886Z,0.40
2023-03-10T14:07:18.296Z,0.80
2023-03-10T14:09:47.717Z,2.33
2023-03-10T14:12:16.289Z,2.05
2023-03-10T14:14:45.294Z,1.15
2023-03-10T14:17:31.449Z,0.80
2023-03-10T14:19:59.290Z,0.73
2023-03-10T14:22:35.310Z,1.30
2023-03-10T14:25:07.323Z,1.60
2023-03-10T14:27:36.354Z,1.05
2023-03-10T14:30:18.559Z,1.63
2023-03-10T14:32:46.909Z,1.42
2023-03-10T14:35:16.776Z,1.67
2023-03-10T14:37:44.362Z,0.90
2023-03-10T14:40:13.488Z,0.70
2023-03-10T14:42:42.431Z,1.15
2023-03-10T14:45:26.469Z,0.98
2023-03-10T14:47:55.909Z,1.30
2023-03-10T14:50:25.358Z,0.20
2023-03-10T14:52:53.249Z,0.57
2023-03-10T14:55:20.963Z,0.65
2023-03-10T14:57:50.776Z,2.85
2023-03-10T15:00:22.867Z,0.95
2023-03-10T15:02:50.539Z,0.98
2023-03-10T15:05:20.070Z,1.10
2023-03-10T15:07:48.771Z,0.45
2023-03-10T15:10:18.085Z,2.30
2023-03-10T15:12:45.954Z,2.70
2023-03-10T15:15:17.300Z,1.05
2023-03-10T15:17:47.032Z,5.32
2023-03-10T15:20:18.919Z,4.55
2023-03-10T15:22:47.199Z,1.60
2023-03-10T15:25:16.487Z,5.65
2023-03-10T15:27:44.625Z,5.40
2023-03-10T15:30:18.270Z,2.60
2023-03-10T15:32:47.374Z,2.43
2023-03-10T15:35:16.653Z,2.28
2023-03-10T15:37:44.995Z,2.78
2023-03-10T15:40:16.798Z,2.93
2023-03-10T15:42:44.577Z,2.55
2023-03-10T15:45:13.322Z,2.40
2023-03-10T15:47:41.008Z,2.55
2023-03-10T15:50:11.680Z,2.35
2023-03-10T15:52:39.760Z,3.45
2023-03-10T15:55:08.090Z,2.77
2023-03-10T15:57:35.779Z,2.30
2023-03-10T16:00:04.003Z,2.80
2023-03-10T16:02:31.830Z,4.65
2023-03-10T16:04:59.523Z,6.65
2023-03-10T16:07:28.767Z,4.55
2023-03-10T16:09:56.590Z,4.78
2023-03-10T16:12:24.292Z,6.40
2023-03-10T16:14:52.099Z,5.17
2023-03-10T16:17:20.799Z,13.63
2023-03-10T16:19:48.846Z,12.18
2023-03-10T16:22:16.596Z,3.90
2023-03-10T16:24:45.735Z,14.60
2023-03-10T16:27:14.316Z,10.55
2023-03-10T16:29:41.983Z,14.30
2023-03-10T16:32:11.890Z,4.87
2023-03-10T16:34:39.666Z,13.30
2023-03-10T16:37:08.156Z,19.70
2023-03-10T16:39:36.614Z,6.15
2023-03-10T16:42:06.492Z,5.72
2023-03-10T16:44:34.151Z,3.65
2023-03-10T16:47:01.750Z,6.47
2023-03-10T16:49:32.036Z,2.90
2023-03-10T16:51:59.985Z,6.05
2023-03-10T16:54:27.710Z,6.15
2023-03-10T16:56:57.156Z,5.50
2023-03-10T16:59:26.302Z,5.10
2023-03-10T17:01:54.132Z,5.93
2023-03-10T17:04:21.848Z,2.63
2023-03-10T17:06:49.712Z,3.70
2023-03-10T17:09:18.269Z,3.42
2023-03-10T17:11:47.461Z,3.78
2023-03-10T17:14:17.378Z,8.85
2023-03-10T17:16:46.867Z,4.32
2023-03-10T17:19:16.248Z,2.55
2023-03-10T17:21:46.560Z,12.07
2023-03-10T17:24:15.237Z,8.93
2023-03-10T17:26:43.434Z,5.60
2023-03-10T17:29:11.582Z,3.42
2023-03-10T17:31:39.731Z,2.83
2023-03-10T17:34:11.760Z,4.70
2023-03-10T17:36:39.703Z,4.35
2023-03-10T17:39:08.363Z,3.60
2023-03-10T17:41:36.900Z,3.10
2023-03-10T17:44:05.336Z,2.50
2023-03-10T17:46:33.403Z,2.40
2023-03-10T17:49:01.409Z,2.35
2023-03-10T17:51:32.188Z,2.75
2023-03-10T17:54:01.798Z,3.03
2023-03-10T17:56:30.076Z,2.20
2023-03-10T17:58:59.191Z,4.10
2023-03-10T18:01:28.922Z,1.88
2023-03-10T18:03:57.558Z,5.37
2023-03-10T18:06:27.164Z,3.10
2023-03-10T18:08:56.866Z,32.83
2023-03-10T18:11:25.411Z,12.13
2023-03-10T18:13:53.452Z,10.15
2023-03-10T18:16:23.036Z,8.75
2023-03-10T18:18:50.968Z,3.50
2023-03-10T18:21:20.187Z,12.35
2023-03-10T18:23:48.903Z,5.13
2023-03-10T18:26:19.974Z,2.33
2023-03-10T18:28:47.904Z,3.03
2023-03-10T18:31:19.494Z,4.50
2023-03-10T18:33:48.293Z,3.63
2023-03-10T18:36:17.176Z,3.22
2023-03-10T18:38:45.180Z,2.05
2023-03-10T18:41:13.094Z,1.60
2023-03-10T18:43:42.074Z,2.67
2023-03-10T18:46:09.767Z,1.80
2023-03-10T18:48:37.394Z,1.42
2023-03-10T18:51:05.471Z,1.30
2023-03-10T18:53:33.154Z,1.53
2023-03-10T18:56:01.235Z,0.50
2023-03-10T18:58:29.831Z,0.77
2023-03-10T19:00:59.124Z,0.60
2023-03-10T19:03:29.699Z,0.50
2023-03-10T19:05:57.919Z,0.30
2023-03-10T19:08:27.079Z,3.67
2023-03-10T19:10:55.344Z,6.80
2023-03-10T19:13:23.275Z,9.65
2023-03-10T19:15:51.268Z,5.47
2023-03-10T19:18:20.467Z,1.90
2023-03-10T19:20:48.103Z,0.68
2023-03-10T19:23:16.221Z,0.93
2023-03-10T19:25:44.395Z,1.05
2023-03-10T19:28:12.020Z,1.60
2023-03-10T19:30:43.021Z,1.65
2023-03-10T19:33:11.618Z,2.80
2023-03-10T19:35:40.713Z,4.77
2023-03-10T19:38:08.723Z,2.55
2023-03-10T19:40:36.699Z,2.88
2023-03-10T19:43:04.391Z,5.15
2023-03-10T19:45:32.186Z,3.58
2023-03-10T19:47:59.818Z,5.35
2023-03-10T19:50:28.083Z,5.43
2023-03-10T19:52:57.050Z,4.70
2023-03-10T19:55:27.336Z,3.08
2023-03-10T19:57:56.522Z,1.92
2023-03-10T20:00:31.384Z,5.57
2023-03-10T20:02:59.605Z,3.35
2023-03-10T20:05:27.791Z,2.25
2023-03-10T20:07:56.806Z,7.80
2023-03-10T20:10:24.478Z,3.42
2023-03-10T20:12:52.600Z,3.83
2023-03-10T20:15:20.812Z,2.90
2023-03-10T20:17:48.896Z,1.40
2023-03-10T20:20:20.008Z,1.67
2023-03-10T20:22:49.607Z,1.50
2023-03-10T20:25:21.388Z,1.30
2023-03-10T20:27:50.809Z,1.63
2023-03-10T20:30:21.317Z,7.15
2023-03-10T20:32:49.182Z,2.50
2023-03-10T20:35:18.313Z,2.28
2023-03-10T20:37:46.335Z,1.08
2023-03-10T20:40:16.533Z,2.65
2023-03-10T20:42:45.677Z,3.38
2023-03-10T20:45:13.842Z,1.70
2023-03-10T20:47:42.134Z,3.15
2023-03-10T20:50:13.365Z,1.05
2023-03-10T20:52:43.168Z,1.17
2023-03-10T20:55:17.562Z,3.75
2023-03-10T20:57:47.123Z,1.85
2023-03-10T21:00:17.625Z,2.08
2023-03-10T21:02:46.624Z,2.50
2023-03-10T21:05:15.534Z,1.90
2023-03-10T21:07:43.589Z,1.10
2023-03-10T21:10:17.927Z,2.13
2023-03-10T21:12:47.198Z,1.58
2023-03-10T21:15:16.385Z,1.77
2023-03-10T21:17:44.848Z,1.40
2023-03-10T21:20:17.546Z,1.48
2023-03-10T21:22:45.596Z,4.27
2023-03-10T21:25:15.763Z,14.05
2023-03-10T21:27:44.205Z,4.13
2023-03-10T21:30:15.317Z,7.13
2023-03-10T21:32:43.054Z,5.93
2023-03-10T21:35:13.832Z,2.73
2023-03-10T21:37:42.747Z,1.73
2023-03-10T21:40:15.050Z,2.47
2023-03-10T21:42:42.854Z,1.20
2023-03-10T21:45:14.362Z,1.48
2023-03-10T21:47:42.100Z,1.10
2023-03-10T21:50:11.273Z,1.42
2023-03-10T21:52:38.882Z,0.70
2023-03-10T21:55:08.461Z,1.15
2023-03-10T21:57:36.788Z,1.70
2023-03-10T22:00:09.452Z,1.87
2023-03-10T22:02:38.483Z,0.57
2023-03-10T22:05:06.865Z,1.42
2023-03-10T22:07:34.803Z,2.50
2023-03-10T22:10:02.481Z,3.17
2023-03-10T22:12:30.128Z,2.20
2023-03-10T22:14:57.896Z,2.07
2023-03-10T22:17:25.696Z,1.80
2023-03-10T22:19:55.707Z,1.63
2023-03-10T22:22:24.095Z,1.20
2023-03-10T22:24:51.847Z,1.50
2023-03-10T22:27:19.521Z,1.85
2023-03-10T22:29:47.256Z,1.83
2023-03-10T22:32:14.964Z,2.17
2023-03-10T22:34:42.871Z,1.27
2023-03-10T22:37:12.345Z,1.30
2023-03-10T22:39:40.208Z,1.52
2023-03-10T22:42:08.794Z,2.25
2023-03-10T22:44:37.101Z,1.00
2023-03-10T22:47:05.076Z,1.70
2023-03-10T22:49:34.080Z,1.55
2023-03-10T22:52:02.637Z,2.07
2023-03-10T22:54:31.616Z,1.48
2023-03-10T22:56:59.504Z,1.13
2023-03-10T22:59:27.271Z,0.95
2023-03-10T23:01:55.095Z,1.58
2023-03-10T23:04:22.845Z,1.95
2023-03-10T23:06:51.380Z,0.90
2023-03-10T23:09:19.102Z,1.30
2023-03-10T23:11:48.980Z,1.73
2023-03-10T23:14:16.959Z,1.70
2023-03-10T23:16:44.793Z,1.17
2023-03-10T23:19:12.485Z,1.60
2023-03-10T23:21:40.083Z,1.20
2023-03-10T23:24:08.000Z,1.40
2023-03-10T23:26:37.393Z,2.15
2023-03-10T23:29:06.482Z,1.15
2023-03-10T23:31:34.114Z,2.17
2023-03-10T23:34:01.900Z,1.80
2023-03-10T23:36:31.024Z,3.35
2023-03-10T23:38:58.767Z,1.73
2023-03-10T23:41:26.548Z,3.30
2023-03-10T23:43:55.051Z,1.00
2023-03-10T23:46:24.621Z,2.35
2023-03-10T23:48:52.352Z,1.98
2023-03-10T23:51:20.065Z,3.53
2023-03-10T23:53:47.747Z,3.65
2023-03-10T23:56:15.499Z,2.13
2023-03-10T23:58:43.173Z,3.13
